VIAG/AGR METAR and TAF weather

Enter ICAO airport designator
Station Type Date Time Source
VIAG METAR 2022/11/27 06:30 UTC NOAA

VIAG 270630Z 30004KT 3500 HZ SKC 23/12 Q1012 NOSIG


Station Type Date Time Source
VIAG Decoded METAR 2022/11/27 06:30 UTC NOAA

Agra, India (VIAG) 27-09N 077-58E 169M
Nov 27, 2022 - 01:30 AM EST / 2022.11.27 0630 UTC
Wind: from the WNW (300 degrees) at 5 MPH (4 KT):0
Visibility: 2 mile(s):0
Sky conditions: clear
Weather: haze
Temperature: 73 F (23 C)
Dew Point: 53 F (12 C)
Relative Humidity: 49%
Pressure (altimeter): 29.88 in. Hg (1012 hPa)
ob: VIAG 270630Z 30004KT 3500 HZ SKC 23/12 Q1012 NOSIG
cycle: 6

Station Type Date Time Source
VIAG TAF 2022/11/30 12:00 UTC NOAA

TAF VIAG 301100Z 3012/0118 VRB02KT 4000 HZ NSC
BECMG 3014/3016 3000 BR
BECMG 3016/3018 1500 BR
BECMG 3018/3022 1000 BR
BECMG 3022/0102 0800 FG
BECMG 0102/0106 1200 HZ
BECMG 0106/0108 36005KT 3000 HZ
BECMG 0108/0110 4000 HZ
BECMG 0114/0116 VRB02KT 3000 BR 0116/0118 1500 BR

Example: see airport list